Latest Weather Observations for Cerberus

IDV60901

Issued at 8:01 pm EDT Sunday 24 January 2021 (issued every 10 minutes, with the page automatically refreshed every 10 minutes)

About weather observations | Map of Melbourne area stations | Latest observations for Melbourne area | Other Formats
Station Details ID: 086361 Name: CERBERUS Lat: -38.36 Lon: 145.18 Height: 12.69 m
Data from the previous 72 hours. | See also: Recent months at Cerberus
Date/Time
EDT
Temp
°C
App
Temp
°C
Dew
Point
°C
Rel
Hum
%
Delta-T
°C
Wind Press
QNH
hPa
Press
MSL
hPa
Rain since
9am
mm
Dir  Spd
km/h
Gust
km/h
Spd
kts
Gust
kts
24/08:00pm 32.4 32.3 12.1 29 12.0 ENE 4 6 2 3 1004.5 1004.5 0.0
24/07:30pm 34.3 33.6 11.4 25 13.5 ENE 6 7 3 4 1004.5 1004.5 0.0
24/07:00pm 35.3 34.1 10.4 22 14.6 ENE 7 13 4 7 1004.5 1004.5 0.0
24/06:30pm 34.8 34.3 11.9 25 13.6 E 6 9 3 5 1004.7 1004.7 0.0
24/06:00pm 35.0 34.3 12.0 25 13.7 ESE 7 9 4 5 1005.0 1005.0 0.0
24/05:30pm 34.5 33.3 11.6 25 13.5 ENE 9 13 5 7 1005.4 1005.4 0.0
24/05:00pm 33.9 33.1 11.1 25 13.4 ENE 6 9 3 5 1005.7 1005.7 0.0
24/04:30pm 33.6 32.7 11.5 26 13.0 ENE 7 13 4 7 1006.1 1006.1 0.0
24/04:00pm 32.8 31.5 11.3 27 12.6 ENE 9 15 5 8 1006.6 1006.6 0.0
24/03:30pm 33.0 30.7 9.1 23 13.5 NE 11 17 6 9 1007.1 1007.1 0.0
24/03:00pm 32.0 30.7 11.2 28 12.1 NE 9 13 5 7 1007.8 1007.8 0.0
24/02:30pm 32.2 31.5 11.9 29 11.9 ENE 7 15 4 8 1008.2 1008.2 0.0
24/02:00pm 30.8 30.9 14.4 36 10.0 ESE 7 9 4 5 1008.7 1008.7 0.0
24/01:30pm 29.1 29.1 13.7 38 9.2 E 6 7 3 4 1009.1 1009.1 0.0
24/01:00pm 27.8 28.5 15.5 47 7.5 E 6 9 3 5 1009.4 1009.4 0.0
24/12:30pm 27.2 28.0 15.9 50 6.9 E 6 9 3 5 1009.9 1009.9 0.0
24/12:00pm 26.3 26.7 15.4 51 6.6 NE 7 13 4 7 1010.2 1010.2 0.0
24/11:30am 25.9 26.4 15.0 51 6.6 NE 6 11 3 6 1010.4 1010.4 0.0
24/11:00am 25.5 26.1 15.8 55 5.9 ENE 7 13 4 7 1010.7 1010.7 0.0
24/10:30am 24.3 25.3 16.8 63 4.6 E 7 11 4 6 1010.8 1010.8 0.0
24/10:00am 22.7 24.1 17.8 74 3.0 ESE 7 11 4 6 1010.9 1010.9 0.0
24/09:30am 22.2 25.0 18.8 81 2.1 SSW 2 4 1 2 1011.1 1011.1 0.0
24/09:00am 20.3 22.7 17.9 86 1.5 SSW 2 6 1 3 1011.0 1011.0 0.0
24/08:30am 18.2 19.2 16.4 89 1.1 SSW 6 6 3 3 1011.3 1011.3 0.0
24/08:00am 17.0 18.4 15.5 91 0.9 SSW 2 4 1 2 1010.8 1010.8 0.0
24/07:30am 14.8 15.8 13.3 91 0.8 CALM 0 0 0 0 1010.5 1010.5 0.0
24/07:00am 12.4 12.4 11.0 91 0.7 WSW 2 4 1 2 1010.3 1010.3 0.0
24/06:30am 12.5 12.5 11.1 91 0.7 WSW 2 2 1 1 1009.7 1009.7 0.0
24/06:00am 12.4 12.3 10.8 90 0.8 WSW 2 4 1 2 1009.6 1009.6 0.0
24/05:30am 12.2 12.5 10.8 91 0.7 CALM 0 0 0 0 1009.3 1009.3 0.0
24/05:00am 12.3 12.5 10.7 90 0.8 CALM 0 0 0 0 1009.2 1009.2 0.0
24/04:30am 12.3 12.2 10.7 90 0.8 WSW 2 2 1 1 1009.5 1009.5 0.0
24/04:00am 12.8 12.0 11.2 90 0.8 WSW 6 7 3 4 1009.8 1009.8 0.0
24/03:30am 12.6 11.8 11.0 90 0.8 WSW 6 7 3 4 1009.9 1009.9 0.0
24/03:00am 12.8 12.4 11.0 89 0.9 WSW 4 6 2 3 1009.8 1009.8 0.0
24/02:30am 13.6 13.4 11.8 89 1.0 WSW 4 6 2 3 1010.1 1010.1 0.0
24/02:00am 13.2 12.5 11.3 88 1.0 WSW 6 6 3 3 1010.3 1010.3 0.0
24/01:30am 13.0 12.9 10.9 87 1.1 WSW 2 6 1 3 1010.8 1010.8 0.0
24/01:00am 14.3 14.6 12.2 87 1.1 WSW 2 4 1 2 1011.4 1011.4 0.0
24/12:30am 14.5 14.1 12.4 87 1.1 WSW 6 7 3 4 1011.4 1011.4 0.0
24/12:00am 14.7 14.3 12.4 86 1.3 WSW 6 9 3 5 1012.0 1012.0 0.0
 
Date/Time
EDT
Temp
°C
App
Temp
°C
Dew
Point
°C
Rel
Hum
%
Delta-T
°C
Wind Press
QNH
hPa
Press
MSL
hPa
Rain since
9am
mm
Dir  Spd
km/h
Gust
km/h
Spd
kts
Gust
kts
23/11:30pm 14.9 15.2 12.2 84 1.5 WSW 2 4 1 2 1012.0 1012.0 0.0
23/11:00pm 15.6 16.1 12.7 83 1.6 WSW 2 4 1 2 1012.3 1012.3 0.0
23/10:30pm 16.4 17.4 13.1 81 1.8 CALM 0 2 0 1 1012.1 1012.1 0.0
23/10:00pm 17.0 17.0 13.5 80 2.0 SE 6 9 3 5 1012.2 1012.2 0.0
23/09:30pm 17.1 17.0 13.4 79 2.1 SSE 6 7 3 4 1012.1 1012.1 0.0
23/09:00pm 17.3 17.2 13.2 77 2.3 S 6 9 3 5 1011.9 1011.9 0.0
23/08:30pm 17.9 17.2 13.2 74 2.6 S 9 15 5 8 1011.7 1011.7 0.0
23/08:00pm 19.1 18.1 13.5 70 3.2 SSW 11 19 6 10 1011.2 1011.2 0.0
23/07:30pm 20.3 19.4 13.7 66 3.8 SSE 11 15 6 8 1010.6 1010.6 0.0
23/07:00pm 20.7 19.7 13.4 63 4.2 SSE 11 19 6 10 1010.4 1010.4 0.0
23/06:30pm 20.6 19.2 13.3 63 4.2 S 13 20 7 11 1010.6 1010.6 0.0
23/06:00pm 21.3 19.2 13.7 62 4.4 S 17 26 9 14 1010.7 1010.7 0.0
23/05:30pm 21.1 18.7 13.8 63 4.2 SSW 19 24 10 13 1010.8 1010.8 0.0
23/05:00pm 22.1 20.5 14.0 60 4.7 SW 15 22 8 12 1010.6 1010.6 0.0
23/04:30pm 22.0 20.7 13.6 59 4.9 SSW 13 20 7 11 1010.7 1010.7 0.0
23/04:00pm 21.7 20.4 13.6 60 4.7 SSW 13 22 7 12 1011.1 1011.1 0.0
23/03:30pm 22.1 20.4 13.7 59 4.9 SSW 15 20 8 11 1011.4 1011.4 0.0
23/03:00pm 22.3 20.7 13.9 59 4.9 SSW 15 24 8 13 1011.9 1011.9 0.0
23/02:30pm 22.2 21.6 13.5 57 5.0 SSW 9 15 5 8 1011.8 1011.8 0.0
23/02:00pm 21.8 20.7 13.2 58 4.9 S 11 19 6 10 1012.1 1012.1 0.0
23/01:30pm 21.7 20.6 13.1 58 4.9 S 11 17 6 9 1012.2 1012.2 0.0
23/01:00pm 21.4 20.5 13.6 61 4.5 SSW 11 17 6 9 1012.6 1012.6 0.0
23/12:30pm 21.1 20.4 13.3 61 4.5 S 9 17 5 9 1012.9 1012.9 0.0
23/12:00pm 20.9 20.4 13.8 64 4.1 S 9 19 5 10 1013.1 1013.1 0.0
23/11:30am 19.9 18.8 13.1 65 3.9 S 11 19 6 10 1013.3 1013.3 0.0
23/11:00am 20.2 19.6 13.4 65 3.9 SSE 9 15 5 8 1013.1 1013.1 0.0
23/10:30am 19.0 18.0 13.4 70 3.2 SSW 11 15 6 8 1013.3 1013.3 0.0
23/10:00am 19.2 19.9 13.4 69 3.3 SSW 2 6 1 3 1013.1 1013.1 0.0
23/09:30am 17.9 17.9 12.4 70 3.1 WSW 4 6 2 3 1013.0 1013.0 0.0
23/09:00am 17.6 17.6 12.5 72 2.8 ENE 4 6 2 3 1013.1 1013.1 0.0
23/08:30am 17.1 17.1 12.4 74 2.6 W 4 6 2 3 1013.0 1013.0 0.0
23/08:00am 16.7 16.7 12.3 75 2.4 W 4 4 2 2 1012.8 1012.8 0.0
23/07:30am 16.4 16.8 12.4 77 2.2 W 2 4 1 2 1012.4 1012.4 0.0
23/07:00am 16.0 16.4 12.4 79 2.0 W 2 4 1 2 1012.1 1012.1 0.0
23/06:30am 15.8 16.5 12.2 79 2.0 CALM 0 2 0 1 1011.9 1011.9 0.0
23/06:00am 15.6 15.5 12.0 79 2.0 W 4 6 2 3 1011.6 1011.6 0.0
23/05:30am 15.4 15.6 12.0 80 1.8 W 2 4 1 2 1011.5 1011.5 0.0
23/05:00am 15.3 15.1 11.7 79 1.9 W 4 4 2 2 1011.3 1011.3 0.0
23/04:30am 15.8 15.4 12.4 80 1.9 W 6 9 3 5 1011.2 1011.2 0.0
23/04:00am 15.8 15.8 12.5 81 1.8 SSW 4 7 2 4 1011.3 1011.3 0.0
23/03:30am 15.4 15.4 12.3 82 1.7 SSW 4 6 2 3 1011.4 1011.4 0.0
23/03:00am 15.3 15.2 12.1 81 1.7 SSW 4 6 2 3 1011.5 1011.5 0.0
23/02:30am 15.8 15.8 12.4 80 1.9 SSW 4 6 2 3 1011.8 1011.8 0.0
23/02:00am 15.7 15.6 12.1 79 2.0 SSW 4 4 2 2 1012.0 1012.0 0.0
23/01:30am 16.0 16.7 12.2 78 2.1 CALM 0 4 0 2 1012.2 1012.2 0.0
23/01:00am 16.1 16.8 12.1 77 2.2 CALM 0 0 0 0 1012.4 1012.4 0.0
23/12:30am 16.3 15.8 12.1 76 2.3 SSW 6 9 3 5 1012.5 1012.5 0.0
23/12:00am 16.9 15.9 12.4 75 2.5 SSW 9 15 5 8 1012.6 1012.6 0.0
 
Date/Time
EDT
Temp
°C
App
Temp
°C
Dew
Point
°C
Rel
Hum
%
Delta-T
°C
Wind Press
QNH
hPa
Press
MSL
hPa
Rain since
9am
mm
Dir  Spd
km/h
Gust
km/h
Spd
kts
Gust
kts
22/11:30pm 16.9 16.0 12.6 76 2.4 SSW 9 15 5 8 1012.9 1012.9 0.0
22/11:00pm 16.9 15.6 12.6 76 2.4 SSW 11 17 6 9 1012.8 1012.8 0.0
22/10:30pm 16.9 16.1 12.8 77 2.3 SSW 9 15 5 8 1012.9 1012.9 0.0
22/10:00pm 16.8 16.3 12.7 77 2.3 SSW 7 13 4 7 1012.7 1012.7 0.0
22/09:30pm 16.7 15.8 12.7 77 2.2 SSW 9 15 5 8 1012.4 1012.4 0.0
22/09:00pm 16.8 15.5 12.5 76 2.4 SSW 11 17 6 9 1011.8 1011.8 0.0
22/08:30pm 17.0 15.8 12.7 76 2.4 SSW 11 17 6 9 1011.5 1011.5 0.0
22/08:00pm 17.1 15.8 12.6 75 2.5 SSW 11 17 6 9 1011.3 1011.3 0.0
22/07:30pm 17.6 15.7 12.9 74 2.6 SSW 15 22 8 12 1011.1 1011.1 0.0
22/07:00pm 18.4 16.6 13.3 72 2.9 SSW 15 20 8 11 1010.9 1010.9 0.0
22/06:30pm 18.6 16.2 12.8 69 3.3 SW 17 24 9 13 1010.8 1010.8 0.0
22/06:00pm 19.1 16.3 13.3 69 3.3 SSW 20 32 11 17 1010.7 1010.7 0.0
22/05:30pm 19.2 15.9 12.9 67 3.6 SSW 22 32 12 17 1010.6 1010.6 0.0
22/05:00pm 20.5 18.1 14.4 68 3.6 SSW 20 30 11 16 1010.4 1010.4 0.0
22/04:30pm 19.6 16.5 13.3 67 3.6 SSW 22 33 12 18 1010.2 1010.2 0.0
22/04:00pm 19.9 16.9 13.8 68 3.5 SSW 22 33 12 18 1010.2 1010.2 0.0
22/03:30pm 20.4 17.5 14.1 67 3.6 SSW 22 37 12 20 1010.1 1010.1 0.0
22/03:00pm 20.9 18.2 12.8 60 4.6 SSW 19 28 10 15 1010.0 1010.0 0.0
22/02:30pm 21.3 19.2 13.5 61 4.5 SSW 17 24 9 13 1010.1 1010.1 0.0
22/02:00pm 20.5 17.7 14.2 67 3.7 SSW 22 35 12 19 1010.2 1010.2 0.0
22/01:30pm 20.8 17.9 14.0 65 3.9 S 22 32 12 17 1010.1 1010.1 0.0
22/01:00pm 20.9 17.8 13.4 62 4.3 SSW 22 32 12 17 1010.0 1010.0 0.0
22/12:30pm 20.5 17.5 14.8 70 3.3 SSW 24 35 13 19 1010.1 1010.1 0.0
22/12:00pm 21.4 19.2 15.0 67 3.8 SSW 20 32 11 17 1009.9 1009.9 0.0
22/11:30am 21.2 19.1 15.3 69 3.5 SSW 20 32 11 17 1009.8 1009.8 0.0
22/11:00am 20.4 17.8 15.0 71 3.2 SSW 22 30 12 16 1009.5 1009.5 0.0
22/10:30am 20.9 19.1 15.4 71 3.3 SW 19 24 10 13 1009.4 1009.4 0.0
22/10:00am 19.7 18.2 14.3 71 3.1 SSW 15 20 8 11 1009.1 1009.1 0.0
22/09:30am 19.9 19.0 14.9 73 2.9 SSW 13 20 7 11 1009.1 1009.1 0.0
22/09:00am 19.6 19.1 15.0 75 2.7 SW 11 17 6 9 1009.0 1009.0 0.0
22/08:30am 18.5 18.3 14.8 79 2.2 SW 9 15 5 8 1009.0 1009.0 0.0
22/08:00am 17.0 18.1 14.6 86 1.4 WSW 2 7 1 4 1008.7 1008.7 0.0
22/07:30am 15.8 16.9 13.5 86 1.3 CALM 0 2 0 1 1008.2 1008.2 0.0
22/07:00am 15.2 15.4 12.9 86 1.3 WSW 4 6 2 3 1007.7 1007.7 0.0
22/06:30am 13.0 12.8 10.4 84 1.3 WSW 2 4 1 2 1007.5 1007.5 0.0
22/06:00am 15.0 15.0 12.5 85 1.4 WSW 4 6 2 3 1007.3 1007.3 0.0
22/05:30am 13.6 13.3 11.3 86 1.2 WSW 4 7 2 4 1006.9 1006.9 0.0
22/05:00am 11.8 11.0 9.5 86 1.2 WSW 4 7 2 4 1006.8 1006.8 0.0
22/04:30am 14.2 14.4 11.9 86 1.2 WSW 2 6 1 3 1006.4 1006.4 0.0
22/04:00am 13.3 13.2 10.8 85 1.3 WSW 2 4 1 2 1006.3 1006.3 0.0
22/03:30am 13.4 13.0 11.1 86 1.2 WSW 4 6 2 3 1006.5 1006.5 0.0
22/03:00am 13.7 13.5 11.8 88 1.0 WSW 4 6 2 3 1006.8 1006.8 0.0
22/02:30am 13.3 13.3 11.2 87 1.1 WSW 2 4 1 2 1007.1 1007.1 0.0
22/02:00am 14.5 14.1 12.4 87 1.1 WSW 6 6 3 3 1007.2 1007.2 0.0
22/01:30am 13.9 14.1 11.8 87 1.1 WSW 2 4 1 2 1007.6 1007.6 0.0
22/01:00am 14.0 13.8 11.7 86 1.2 WSW 4 7 2 4 1008.0 1008.0 0.0
22/12:30am 15.0 15.4 12.5 85 1.4 WSW 2 4 1 2 1008.1 1008.1 0.0
22/12:00am 15.0 15.7 12.3 84 1.5 CALM 0 0 0 0 1008.2 1008.2 0.0
 
Date/Time
EDT
Temp
°C
App
Temp
°C
Dew
Point
°C
Rel
Hum
%
Delta-T
°C
Wind Press
QNH
hPa
Press
MSL
hPa
Rain since
9am
mm
Dir  Spd
km/h
Gust
km/h
Spd
kts
Gust
kts
21/11:30pm 16.1 16.4 13.4 84 1.5 WSW 4 6 2 3 1008.4 1008.4 0.0
21/11:00pm 16.5 16.9 13.6 83 1.6 WSW 4 6 2 3 1008.6 1008.6 0.0
21/10:30pm 17.0 17.5 13.9 82 1.8 WSW 4 6 2 3 1008.8 1008.8 0.0
21/10:00pm 17.3 17.8 14.0 81 1.9 WSW 4 6 2 3 1008.6 1008.6 0.0
21/09:30pm 18.1 18.4 14.4 79 2.1 WSW 6 7 3 4 1008.5 1008.5 0.0
21/09:00pm 18.7 19.0 14.6 77 2.4 SW 6 9 3 5 1008.4 1008.4 0.0
21/08:30pm 19.9 20.2 14.9 73 2.9 WSW 7 11 4 6 1008.6 1008.6 0.0

Latest Capital City Observations: Canberra | Sydney | Melbourne | Brisbane | Adelaide | Perth | Hobart | Darwin

Other formats

Comma delimited format used in spreadsheet applications
http://www.bom.gov.au/fwo/IDV60901/IDV60901.94898.axf

JavaScript Object Notation format (JSON) in row-major order
http://www.bom.gov.au/fwo/IDV60901/IDV60901.94898.json

Data quality

Most of these data are generated automatically and are frequently updated. Quality checks on data are not normally performed. It is possible for incorrect values to appear. Refer to information at About Latest Weather Observations and please check the disclaimer before using these data.